SIPK1: Pottawatomie Creek nr Scipio 1SE

                                SHEF ID:       SIPK1     POTTAWATOMIE C NR SCIPIO, KS
STATION TYPE:

PRECIP STAGE RIV-FLOW BAT-LOAD
in ft cfs volt
Ccp-Rev Ccp-Rev Ccp-Rev Ccp-Rev
(America/Chicago)
08/07 00:00 ---- 5.49 417 12.73
08/07 01:00 ---- 5.49 417 12.73
08/07 02:00 ---- 5.45 411 12.65
08/07 03:00 ---- 5.36 399 12.65
08/07 04:00 ---- 5.26 386 12.65
08/07 05:00 ---- 5.14 370 12.65
08/07 06:00 ---- 5.03 354 12.65
08/07 07:00 ---- 4.93 335 12.57
08/07 08:00 ---- 4.83 316 12.57
08/07 09:00 ---- 4.74 300 12.57
08/07 10:00 ---- 4.66 285 12.65
08/07 11:00 ---- 4.59 265 12.81
08/07 12:00 ---- 4.53 248 13.29
08/07 13:00 ---- 4.47 232 13.60
08/07 14:00 ---- 4.43 222 13.53
08/07 15:00 ---- 4.38 210 13.53
08/07 16:00 ---- 4.34 201 13.37
08/07 17:00 ---- 4.30 193 13.29
08/07 18:00 ---- 4.28 189 13.29
08/07 19:00 ---- 4.28 189 13.21
08/07 20:00 ---- 4.27 187 12.89
08/07 21:00 ---- 4.26 185 12.81
08/07 22:00 ---- 4.25 183 12.81
08/07 23:00 ---- 4.25 183 12.73
Data processed at Sat 08Aug2026 04:48 GMT

NOTICE: If you are parsing this page

Please convert to using our Data API. Starting early 2026 we will be migrating to: https://water.usace.army.mil with modern pages rendered in JavaScript. When this migration completes you will no longer be able to scrape this page! CWMSDataAPI (CDA)

Timeseries IDs (TSIDs)

TSIDs used from left to right in the data table
SCIP.Precip-Inc.Total.1Hour.1Hour.Ccp-Rev
SCIP.Stage.Inst.1Hour.0.Ccp-Rev
SCIP.Flow.Inst.1Hour.0.Ccp-Rev
SCIP.Volt-Battery Load.Inst.1Hour.0.Ccp-Rev

                            

All information presented herein is the property of the government of the United States of America and may be revised or deleted at any time without prior notice. Dissemination of this information without the expressed written consent of the Public Affairs Office, Tulsa District U.S. Army Corps of Engineers is strictly prohibited. These data are gathered electronically and, as presented, have NOT undergone any form of quality control. These data are NOT guaranteed to be valid or correct.